Time,TemperatureF,DewpointF,PressureIn,WindDirection,WindDirectionDegrees,WindSpeedMPH,WindSpeedGustMPH,Humidity,HourlyPrecipIn,Conditions,Clouds,dailyrainin,SoftwareType,DateUTC
2013-03-13 00:03:00,50.8,41.7,30.16,WSW,257,0.0,0.0,71,0.00,,,0.00,Wunderground v.1.13,2013-03-13 07:03:00,
2013-03-13 00:10:00,51.1,41.7,30.16,WSW,257,0.0,0.0,70,0.00,,,0.00,Wunderground v.1.13,2013-03-13 07:10:00,
2013-03-13 00:15:00,51.1,42.0,30.16,WSW,257,0.0,0.0,71,0.00,,,0.00,Wunderground v.1.13,2013-03-13 07:15:00,
2013-03-13 00:21:00,51.1,42.4,30.16,WSW,257,0.0,0.0,72,0.00,,,0.00,Wunderground v.1.13,2013-03-13 07:21:00,
2013-03-13 00:28:00,51.0,42.6,30.16,WSW,257,0.0,0.0,73,0.00,,,0.00,Wunderground v.1.13,2013-03-13 07:28:00,
2013-03-13 00:33:00,50.8,42.8,30.15,WSW,257,0.0,2.0,74,0.00,,,0.00,Wunderground v.1.13,2013-03-13 07:33:00,
2013-03-13 00:39:00,50.7,43.1,30.15,WSW,256,1.0,2.0,75,0.00,,,0.00,Wunderground v.1.13,2013-03-13 07:39:00,
2013-03-13 00:45:00,50.2,42.6,30.16,SSW,210,2.0,2.0,75,0.00,,,0.00,Wunderground v.1.13,2013-03-13 07:45:00,
2013-03-13 00:51:00,49.9,42.3,30.16,SSE,165,2.0,3.0,75,0.00,,,0.00,Wunderground v.1.13,2013-03-13 07:51:00,
2013-03-13 00:57:00,49.6,42.0,30.16,SSE,168,2.0,2.0,75,0.00,,,0.00,Wunderground v.1.13,2013-03-13 07:57:00,
2013-03-13 01:03:00,49.5,41.9,30.16,SW,216,2.0,3.0,75,0.00,,,0.00,Wunderground v.1.13,2013-03-13 08:03:00,
2013-03-13 01:09:00,49.4,41.8,30.16,SSW,209,2.0,2.0,75,0.00,,,0.00,Wunderground v.1.13,2013-03-13 08:09:00,
2013-03-13 01:15:00,49.2,42.0,30.17,SSW,208,1.0,2.0,76,0.00,,,0.00,Wunderground v.1.13,2013-03-13 08:15:00,
2013-03-13 01:22:00,49.1,41.9,30.17,SSW,212,1.0,3.0,76,0.00,,,0.00,Wunderground v.1.13,2013-03-13 08:22:00,
2013-03-13 01:27:00,48.9,41.7,30.17,SSW,205,1.0,2.0,76,0.00,,,0.00,Wunderground v.1.13,2013-03-13 08:27:00,
2013-03-13 01:33:00,48.9,41.7,30.17,South,189,1.0,2.0,76,0.00,,,0.00,Wunderground v.1.13,2013-03-13 08:33:00,
2013-03-13 01:39:00,48.8,41.6,30.17,SSW,212,1.0,2.0,76,0.00,,,0.00,Wunderground v.1.13,2013-03-13 08:39:00,
2013-03-13 01:45:00,48.8,41.6,30.17,SSW,212,1.0,2.0,76,0.00,,,0.00,Wunderground v.1.13,2013-03-13 08:45:00,
2013-03-13 01:52:00,48.8,41.6,30.17,SSW,212,1.0,2.0,76,0.00,,,0.00,Wunderground v.1.13,2013-03-13 08:52:00,
2013-03-13 01:57:00,48.8,41.6,30.17,SW,224,1.0,2.0,76,0.00,,,0.00,Wunderground v.1.13,2013-03-13 08:57:00,
2013-03-13 02:03:00,48.8,41.6,30.17,SSE,164,1.0,1.0,76,0.00,,,0.00,Wunderground v.1.13,2013-03-13 09:03:00,
2013-03-13 02:09:00,48.8,41.6,30.17,SW,217,1.0,2.0,76,0.00,,,0.00,Wunderground v.1.13,2013-03-13 09:09:00,
2013-03-13 02:15:00,48.8,41.6,30.17,SW,217,0.0,1.0,76,0.00,,,0.00,Wunderground v.1.13,2013-03-13 09:15:00,
2013-03-13 02:21:00,48.8,41.6,30.17,SW,217,0.0,0.0,76,0.00,,,0.00,Wunderground v.1.13,2013-03-13 09:21:00,
2013-03-13 02:28:00,48.8,41.6,30.17,SW,217,0.0,0.0,76,0.00,,,0.00,Wunderground v.1.13,2013-03-13 09:28:00,
2013-03-13 02:33:00,48.8,41.6,30.17,South,176,0.0,2.0,76,0.00,,,0.00,Wunderground v.1.13,2013-03-13 09:33:00,
2013-03-13 02:39:00,48.8,41.6,30.17,South,176,0.0,0.0,76,0.00,,,0.00,Wunderground v.1.13,2013-03-13 09:39:00,
2013-03-13 02:45:00,48.8,41.6,30.18,South,178,0.0,0.0,76,0.00,,,0.00,Wunderground v.1.13,2013-03-13 09:45:00,
2013-03-13 02:51:00,48.8,41.6,30.18,South,178,0.0,0.0,76,0.00,,,0.00,Wunderground v.1.13,2013-03-13 09:51:00,
2013-03-13 02:57:00,48.9,41.7,30.18,South,178,0.0,1.0,76,0.00,,,0.00,Wunderground v.1.13,2013-03-13 09:57:00,
2013-03-13 03:03:00,48.9,41.7,30.19,South,181,0.0,1.0,76,0.00,,,0.00,Wunderground v.1.13,2013-03-13 10:03:00,
2013-03-13 03:09:00,48.9,41.7,30.19,South,181,0.0,0.0,76,0.00,,,0.00,Wunderground v.1.13,2013-03-13 10:09:00,
2013-03-13 03:16:00,49.1,41.9,30.19,South,181,0.0,0.0,76,0.00,,,0.00,Wunderground v.1.13,2013-03-13 10:16:00,
2013-03-13 21:54:00,55.7,44.9,30.06,N/A,-737280,0.0,0.0,67,0.00,,,0.00,Wunderground v.1.13,2013-03-14 04:54:00,
2013-03-13 21:56:00,55.7,44.9,30.06,N/A,-737280,0.0,0.0,67,0.00,,,0.00,Wunderground v.1.13,2013-03-14 04:56:00,
2013-03-13 21:58:00,55.7,44.9,30.06,N/A,-737280,0.0,0.0,67,0.00,,,0.00,Wunderground v.1.13,2013-03-14 04:58:00,
2013-03-13 22:00:00,55.7,44.9,30.06,N/A,-737280,0.0,0.0,67,0.00,,,0.00,Wunderground v.1.13,2013-03-14 05:00:00,
2013-03-13 22:02:00,55.7,44.9,30.06,N/A,-737280,0.0,0.0,67,0.00,,,0.00,Wunderground v.1.13,2013-03-14 05:02:00,
2013-03-13 22:04:00,55.7,44.9,30.06,N/A,-737280,0.0,0.0,67,0.00,,,0.00,Wunderground v.1.13,2013-03-14 05:04:00,
2013-03-13 22:06:00,55.7,44.9,30.06,N/A,-737280,0.0,0.0,67,0.00,,,0.00,Wunderground v.1.13,2013-03-14 05:06:00,
2013-03-13 22:08:00,55.7,44.9,30.06,N/A,-737280,0.0,0.0,67,0.00,,,0.00,Wunderground v.1.13,2013-03-14 05:08:00,
2013-03-13 22:10:00,55.7,44.9,30.06,N/A,-737280,0.0,0.0,67,0.00,,,0.00,Wunderground v.1.13,2013-03-14 05:10:00,
2013-03-13 22:12:00,55.7,44.9,30.06,N/A,-737280,0.0,0.0,67,0.00,,,0.00,Wunderground v.1.13,2013-03-14 05:12:00,
2013-03-13 22:14:00,55.7,44.9,30.06,N/A,-737280,0.0,0.0,67,0.00,,,0.00,Wunderground v.1.13,2013-03-14 05:14:00,
2013-03-13 22:16:00,55.0,45.0,30.06,N/A,-737280,0.0,0.0,69,0.00,,,0.00,Wunderground v.1.13,2013-03-14 05:16:00,
2013-03-13 22:18:00,55.0,45.0,30.06,N/A,-737280,0.0,0.0,69,0.00,,,0.00,Wunderground v.1.13,2013-03-14 05:18:00,
2013-03-13 22:20:00,55.0,45.0,30.06,N/A,-737280,0.0,0.0,69,0.00,,,0.00,Wunderground v.1.13,2013-03-14 05:20:00,
2013-03-13 22:22:00,55.0,45.0,30.06,N/A,-737280,0.0,0.0,69,0.00,,,0.00,Wunderground v.1.13,2013-03-14 05:22:00,
2013-03-13 22:24:00,55.0,45.0,30.06,N/A,-737280,0.0,0.0,69,0.00,,,0.00,Wunderground v.1.13,2013-03-14 05:24:00,
2013-03-13 22:26:00,55.0,45.0,30.06,N/A,-737280,0.0,0.0,69,0.00,,,0.00,Wunderground v.1.13,2013-03-14 05:26:00,
2013-03-13 22:28:00,55.0,45.0,30.06,N/A,-737280,0.0,0.0,69,0.00,,,0.00,Wunderground v.1.13,2013-03-14 05:28:00,
2013-03-13 22:30:00,55.0,45.0,30.06,N/A,-737280,0.0,0.0,69,0.00,,,0.00,Wunderground v.1.13,2013-03-14 05:30:00,
2013-03-13 22:32:00,55.0,45.0,30.06,N/A,-737280,0.0,0.0,69,0.00,,,0.00,Wunderground v.1.13,2013-03-14 05:32:00,
2013-03-13 22:34:00,55.0,45.0,30.06,N/A,-737280,0.0,0.0,69,0.00,,,0.00,Wunderground v.1.13,2013-03-14 05:34:00,
2013-03-13 22:36:00,55.0,45.0,30.06,N/A,-737280,0.0,0.0,69,0.00,,,0.00,Wunderground v.1.13,2013-03-14 05:36:00,
2013-03-13 22:38:00,55.0,45.0,30.06,N/A,-737280,0.0,0.0,69,0.00,,,0.00,Wunderground v.1.13,2013-03-14 05:38:00,
2013-03-13 22:40:00,55.0,45.0,30.06,N/A,-737280,0.0,0.0,69,0.00,,,0.00,Wunderground v.1.13,2013-03-14 05:40:00,
2013-03-13 22:42:00,55.0,45.0,30.06,N/A,-737280,0.0,0.0,69,0.00,,,0.00,Wunderground v.1.13,2013-03-14 05:42:00,
2013-03-13 22:44:00,55.0,45.0,30.06,N/A,-737280,0.0,0.0,69,0.00,,,0.00,Wunderground v.1.13,2013-03-14 05:44:00,
2013-03-13 22:46:00,54.4,44.8,30.05,N/A,-737280,0.0,0.0,70,0.00,,,0.00,Wunderground v.1.13,2013-03-14 05:46:00,
2013-03-13 22:48:00,54.4,44.8,30.05,N/A,-737280,0.0,0.0,70,0.00,,,0.00,Wunderground v.1.13,2013-03-14 05:48:00,
2013-03-13 22:50:00,54.4,44.8,30.05,N/A,-737280,0.0,0.0,70,0.00,,,0.00,Wunderground v.1.13,2013-03-14 05:50:00,
2013-03-13 22:52:00,54.4,44.8,30.05,N/A,-737280,0.0,0.0,70,0.00,,,0.00,Wunderground v.1.13,2013-03-14 05:52:00,
2013-03-13 22:54:00,54.4,44.8,30.05,N/A,-737280,0.0,0.0,70,0.00,,,0.00,Wunderground v.1.13,2013-03-14 05:54:00,
2013-03-13 22:56:00,54.4,44.8,30.05,N/A,-737280,0.0,0.0,70,0.00,,,0.00,Wunderground v.1.13,2013-03-14 05:56:00,
2013-03-13 22:58:00,54.4,44.8,30.05,N/A,-737280,0.0,0.0,70,0.00,,,0.00,Wunderground v.1.13,2013-03-14 05:58:00,
2013-03-13 23:00:00,54.4,44.8,30.05,N/A,-737280,0.0,0.0,70,0.00,,,0.00,Wunderground v.1.13,2013-03-14 06:00:00,
2013-03-13 23:02:00,54.4,44.8,30.05,N/A,-737280,0.0,0.0,70,0.00,,,0.00,Wunderground v.1.13,2013-03-14 06:02:00,
2013-03-13 23:04:00,54.4,44.8,30.05,N/A,-737280,0.0,0.0,70,0.00,,,0.00,Wunderground v.1.13,2013-03-14 06:04:00,
2013-03-13 23:06:00,54.4,44.8,30.05,N/A,-737280,0.0,0.0,70,0.00,,,0.00,Wunderground v.1.13,2013-03-14 06:06:00,
2013-03-13 23:08:00,54.4,44.8,30.05,N/A,-737280,0.0,0.0,70,0.00,,,0.00,Wunderground v.1.13,2013-03-14 06:08:00,
2013-03-13 23:10:00,54.4,44.8,30.05,N/A,-737280,0.0,0.0,70,0.00,,,0.00,Wunderground v.1.13,2013-03-14 06:10:00,
2013-03-13 23:12:00,54.4,44.8,30.05,N/A,-737280,0.0,0.0,70,0.00,,,0.00,Wunderground v.1.13,2013-03-14 06:12:00,
2013-03-13 23:14:00,54.4,44.8,30.05,N/A,-737280,0.0,0.0,70,0.00,,,0.00,Wunderground v.1.13,2013-03-14 06:14:00,
2013-03-13 23:16:00,53.9,44.7,30.05,N/A,-737280,0.0,0.0,71,0.00,,,0.00,Wunderground v.1.13,2013-03-14 06:16:00,
2013-03-13 23:18:00,53.9,44.7,30.05,N/A,-737280,0.0,0.0,71,0.00,,,0.00,Wunderground v.1.13,2013-03-14 06:18:00,
2013-03-13 23:20:00,53.9,44.7,30.05,N/A,-737280,0.0,0.0,71,0.00,,,0.00,Wunderground v.1.13,2013-03-14 06:20:00,
2013-03-13 23:22:00,53.9,44.7,30.05,N/A,-737280,0.0,0.0,71,0.00,,,0.00,Wunderground v.1.13,2013-03-14 06:22:00,
2013-03-13 23:24:00,53.9,44.7,30.05,N/A,-737280,0.0,0.0,71,0.00,,,0.00,Wunderground v.1.13,2013-03-14 06:24:00,
2013-03-13 23:26:00,53.9,44.7,30.05,N/A,-737280,0.0,0.0,71,0.00,,,0.00,Wunderground v.1.13,2013-03-14 06:26:00,
2013-03-13 23:28:00,53.9,44.7,30.05,N/A,-737280,0.0,0.0,71,0.00,,,0.00,Wunderground v.1.13,2013-03-14 06:28:00,
2013-03-13 23:30:00,53.9,44.7,30.05,N/A,-737280,0.0,0.0,71,0.00,,,0.00,Wunderground v.1.13,2013-03-14 06:30:00,
2013-03-13 23:32:00,53.9,44.7,30.05,N/A,-737280,0.0,0.0,71,0.00,,,0.00,Wunderground v.1.13,2013-03-14 06:32:00,
2013-03-13 23:34:00,53.9,44.7,30.05,N/A,-737280,0.0,0.0,71,0.00,,,0.00,Wunderground v.1.13,2013-03-14 06:34:00,
2013-03-13 23:36:00,53.9,44.7,30.05,N/A,-737280,0.0,0.0,71,0.00,,,0.00,Wunderground v.1.13,2013-03-14 06:36:00,
2013-03-13 23:38:00,53.9,44.7,30.05,N/A,-737280,0.0,0.0,71,0.00,,,0.00,Wunderground v.1.13,2013-03-14 06:38:00,
2013-03-13 23:40:00,53.9,44.7,30.05,N/A,-737280,0.0,0.0,71,0.00,,,0.00,Wunderground v.1.13,2013-03-14 06:40:00,
2013-03-13 23:42:00,53.9,44.7,30.05,N/A,-737280,0.0,0.0,71,0.00,,,0.00,Wunderground v.1.13,2013-03-14 06:42:00,
2013-03-13 23:44:00,53.9,44.7,30.05,N/A,-737280,0.0,0.0,71,0.00,,,0.00,Wunderground v.1.13,2013-03-14 06:44:00,
2013-03-13 23:46:00,53.2,45.5,30.04,N/A,-737280,0.0,0.0,75,0.00,,,0.00,Wunderground v.1.13,2013-03-14 06:46:00,
2013-03-13 23:48:00,53.2,45.5,30.04,N/A,-737280,0.0,0.0,75,0.00,,,0.00,Wunderground v.1.13,2013-03-14 06:48:00,
2013-03-13 23:50:00,53.2,45.5,30.04,N/A,-737280,0.0,0.0,75,0.00,,,0.00,Wunderground v.1.13,2013-03-14 06:50:00,
2013-03-13 23:52:00,53.2,45.5,30.04,N/A,-737280,0.0,0.0,75,0.00,,,0.00,Wunderground v.1.13,2013-03-14 06:52:00,
2013-03-13 23:54:00,53.2,45.5,30.04,N/A,-737280,0.0,0.0,75,0.00,,,0.00,Wunderground v.1.13,2013-03-14 06:54:00,
2013-03-13 23:56:00,53.2,45.5,30.04,N/A,-737280,0.0,0.0,75,0.00,,,0.00,Wunderground v.1.13,2013-03-14 06:56:00,
2013-03-13 23:58:00,53.2,45.5,30.04,N/A,-737280,0.0,0.0,75,0.00,,,0.00,Wunderground v.1.13,2013-03-14 06:58:00,